• Join FlightAware (Why Join?)
  • Login
  • US Flag 
05:54AM EDT


 

Airport Tracker/Info


-or-


 

Live Flight TrackerFlight Track Log ✈ DAL268 ✈ 23-Oct-2013 ✈ KJFK - LLBG / TLV

Flight Track Log - Related Links

Times and Time Zones

All times are in EDT time to prevent confusion due to time zone crossing. See the DAL268 flight status page for this flight to view local times or setup timezone preferences in your user account.

Time Position Orientation Groundspeed Altitude Reporting Facility
EDT Latitude Longitude Course Direction KTS MPH feet Rate Location/Type
09:14PM 40.6330 -73.7850 360° North  Level FlightAware
09:17PM 40.8670 -73.5664 37° Northeast  Level FlightAware Approximate
09:21PM 40.8629 -73.5704 37° Northeast  Level FlightAware Approximate
09:25PM 40.8866 -73.5468 37° Northeast  Level FlightAware Approximate
09:26PM 40.9958 -73.4441 30° Northeast  Level FlightAware Approximate
09:33PM 40.9243 -73.5090 37° Northeast  Level FlightAware Approximate
09:36PM 40.9337 -73.5000 North  Level FlightAware Approximate
09:40PM 40.9562 -73.4876 56° Northeast  Level FlightAware Approximate
09:44PM 40.6240 -73.7810 217° Southwest  Level FlightAware
09:46PM 40.6330 -73.8050 302° West 160 184 240 Level FlightAware
09:47PM 40.6420 -73.8280 297° West 174 200 800 1,680 Climbing FlightAware
09:48PM 40.6280 -73.8700 246° West 204 235 1,800 1,200 Climbing FlightAware
09:48PM 40.6070 -73.8990 226° Southwest 241 277 2,200 660 Climbing FlightAware
09:48PM 40.5910 -73.9040 193° South 261 300 2,300 840 Climbing FlightAware
09:49PM 40.5560 -73.8760 149° Southeast 288 331 2,900 1,500 Climbing FlightAware
09:49PM 40.5370 -73.8290 118° Southeast 298 343 3,900 1,980 Climbing FlightAware
09:50PM 40.5220 -73.7780 111° Southeast 305 351 4,900 1,920 Climbing FlightAware
09:51PM 40.5520 -73.7090 60° Northeast 304 350 6,300 2,040 Climbing FlightAware
09:51PM 40.5790 -73.6800 39° Northeast 308 354 7,300 2,280 Climbing FlightAware
09:51PM 40.6010 -73.6560 40° Northeast 311 358 8,000 2,100 Climbing FlightAware
09:52PM 40.6420 -73.6210 33° Northeast 315 362 9,200 2,040 Climbing FlightAware
09:52PM 40.6900 -73.5900 26° Northeast 321 369 10,400 1,440 Climbing FlightAware
09:53PM 40.7730 -73.5370 26° Northeast 363 418 11,500 1,140 Climbing FlightAware
09:54PM 40.8432 -73.4920 26° Northeast 390 449 12,400 1,440 Climbing FlightAware ADS-B (KSNC)
09:55PM 40.8928 -73.4599 26° Northeast 400 460 13,300 1,860 Climbing FlightAware ADS-B (KSNC)
09:55PM 40.9434 -73.4270 26° Northeast 409 471 14,300 1,980 Climbing FlightAware ADS-B (KSNC)
09:56PM 40.9916 -73.3959 26° Northeast 418 481 15,300 1,920 Climbing FlightAware ADS-B (KSNC)
09:56PM 41.0636 -73.3495 26° Northeast 430 495 16,600 1,860 Climbing FlightAware ADS-B (KSNC)
09:57PM 41.1208 -73.3123 26° Northeast 438 504 17,500 1,680 Climbing FlightAware ADS-B (KSNC)
09:58PM 41.2046 -73.2543 28° Northeast 454 522 18,800 1,620 Climbing FlightAware ADS-B (KSNC)
09:58PM 41.2538 -73.1974 41° Northeast 468 539 19,600 1,380 Climbing FlightAware ADS-B (KSNC)
09:59PM 41.3159 -73.0947 51° Northeast 482 555 20,600 1,260 Climbing FlightAware ADS-B (KSNC)
09:59PM 41.3587 -73.0226 52° Northeast 493 567 21,200 1,260 Climbing FlightAware ADS-B (KSNC)
10:00PM 41.4124 -72.9316 52° Northeast 504 580 22,200 1,320 Climbing FlightAware ADS-B (KSNC)
10:01PM 41.4630 -72.8458 52° Northeast 510 587 22,900 1,080 Climbing FlightAware ADS-B (KSNC)
10:01PM 41.5270 -72.7370 52° Northeast 526 605 23,600 1,020 Climbing FlightAware ADS-B (KSNC)
10:02PM 41.5762 -72.6546 51° Northeast 533 613 24,200 1,080 Climbing FlightAware ADS-B (KSNC)
10:02PM 41.6019 -72.6003 58° Northeast 539 620 24,500 960 Climbing FlightAware ADS-B (KSNC)
10:03PM 41.6400 -72.4958 64° Northeast 549 632 25,100 900 Climbing FlightAware ADS-B (KSNC)
10:03PM 41.6726 -72.4076 64° Northeast 558 642 25,500 900 Climbing FlightAware ADS-B (KSNC)
10:04PM 41.7095 -72.3112 63° Northeast 566 651 26,000 960 Climbing FlightAware ADS-B (KSNC)
10:04PM 41.7454 -72.2183 63° Northeast 573 659 26,500 900 Climbing FlightAware ADS-B (KSNC)
10:05PM 41.7883 -72.1092 62° Northeast 580 667 27,000 900 Climbing FlightAware ADS-B (KSNC)
10:05PM 41.8254 -72.0154 62° Northeast 586 674 27,500 840 Climbing FlightAware ADS-B
10:06PM 41.8734 -71.8937 62° Northeast 594 684 28,000 780 Climbing FlightAware ADS-B
10:07PM 41.9106 -71.7995 62° Northeast 601 692 28,400 900 Climbing FlightAware ADS-B
10:07PM 41.9494 -71.6965 63° Northeast 602 693 29,000 900 Climbing FlightAware ADS-B
10:08PM 41.9926 -71.5790 64° Northeast 606 697 29,400 780 Climbing FlightAware ADS-B
10:08PM 42.0093 -71.5339 64° Northeast 605 696 29,600 960 Climbing FlightAware ADS-B (KBOS)
10:08PM 42.0507 -71.4207 64° Northeast 613 705 30,200 960 Climbing FlightAware ADS-B (KBOS)
10:09PM 42.0945 -71.3014 64° Northeast 615 708 30,700 480 Climbing FlightAware ADS-B (KBOS)
10:10PM 42.1589 -71.1249 64° Northeast 616 709 30,900 120 Climbing FlightAware ADS-B
10:10PM 42.2087 -70.9879 64° Northeast 612 704 30,900  Level FlightAware ADS-B (KBOS)
10:11PM 42.2487 -70.8779 64° Northeast 610 702 30,900 60 Level FlightAware ADS-B
10:12PM 42.2907 -70.7613 64° Northeast 604 695 31,000 240 Climbing FlightAware ADS-B
10:12PM 42.3347 -70.6386 64° Northeast 613 705 31,200 540 Climbing FlightAware ADS-B
10:13PM 42.3887 -70.4874 64° Northeast 621 715 31,700 540 Climbing FlightAware ADS-B (KBOS)
10:13PM 42.4268 -70.3803 64° Northeast 628 723 31,900 540 Climbing FlightAware ADS-B (KBOS)
10:14PM 42.4766 -70.2394 64° Northeast 633 728 32,400 720 Climbing FlightAware ADS-B (KBOS)
10:15PM 42.5178 -70.1226 64° Northeast 633 728 32,900 300 Climbing FlightAware ADS-B (KBOS)
10:16PM 42.5760 -69.9567 64° Northeast 633 728 32,900  Level FlightAware ADS-B (KBOS)
10:16PM 42.6365 -69.7828 65° Northeast 631 726 32,900  Level FlightAware ADS-B (KBOS)
10:17PM 42.6819 -69.6517 65° Northeast 629 724 32,900  Level FlightAware ADS-B (CYQI)
10:17PM 42.7268 -69.5210 65° Northeast 629 724 32,900  Level FlightAware ADS-B (CYQI)
10:18PM 42.7651 -69.4099 65° Northeast 629 724 32,900  Level FlightAware ADS-B (CYQI)
10:19PM 42.8108 -69.2763 65° Northeast 629 724 32,900  Level FlightAware ADS-B (KBOS)
10:19PM 42.8801 -69.0728 65° Northeast 633 728 32,900  Level FlightAware ADS-B (CYQI)
10:20PM 42.9186 -68.9583 65° Northeast 633 728 32,900  Level FlightAware ADS-B (CYQI)
10:20PM 42.9553 -68.8498 65° Northeast 634 730 32,900  Level FlightAware ADS-B (CYQI)
10:22PM 43.0293 -68.6290 65° Northeast 631 726 32,900  Level FlightAware ADS-B (CYQI)
10:23PM 43.1085 -68.3905 65° Northeast 630 725 32,900  Level FlightAware ADS-B (CYQI)
10:23PM 43.1450 -68.2794 66° East 629 724 32,900  Level FlightAware ADS-B (CYQI)
10:24PM 43.1855 -68.1562 66° East 630 725 32,900  Level FlightAware ADS-B (CYQI)
10:24PM 43.2341 -68.0073 66° East 629 724 32,900  Level FlightAware ADS-B (CYQI)
10:25PM 43.2974 -67.8123 66° East 630 725 32,900  Level FlightAware ADS-B (CYQI)
10:26PM 43.3607 -67.6164 66° East 629 724 32,900  Level FlightAware ADS-B (CYQI)
10:27PM 43.3938 -67.5126 66° East 629 724 32,900  Level FlightAware ADS-B (CYQI)
10:28PM 43.4827 -67.2336 66° East 629 724 32,900  Level FlightAware ADS-B (CYQI)
10:29PM 43.5575 -67.0082 65° Northeast 630 725 32,900  Level FlightAware ADS-B (CYQI)
10:29PM 43.6008 -66.9002 61° Northeast 631 726 32,900  Level FlightAware ADS-B (CYQI)
10:30PM 43.6492 -66.7865 59° Northeast 633 728 32,900  Level FlightAware ADS-B (CYQI)
10:31PM 43.6939 -66.6832 59° Northeast 632 727 32,900  Level FlightAware ADS-B (CYQI)
10:31PM 43.7773 -66.4888 59° Northeast 633 728 32,900  Level FlightAware ADS-B (CYQI)
10:32PM 43.8436 -66.3331 59° Northeast 634 730 32,900  Level FlightAware ADS-B (CYQI)
10:33PM 43.9057 -66.1864 60° Northeast 634 730 32,900  Level FlightAware ADS-B (CYQI)
10:34PM 43.9686 -66.0365 60° Northeast 633 728 32,900  Level FlightAware ADS-B (CYQI)
10:34PM 44.0177 -65.9192 60° Northeast 633 728 32,900  Level FlightAware ADS-B (CYQI)
10:35PM 44.0547 -65.8303 60° Northeast 633 728 32,900  Level FlightAware ADS-B (CYQI)
10:35PM 44.1068 -65.7048 60° Northeast 634 730 32,900  Level FlightAware ADS-B (CYQI)
10:36PM 44.1498 -65.6009 60° Northeast 635 731 32,900  Level FlightAware ADS-B (CYQI)
10:36PM 44.1924 -65.4971 60° Northeast 637 733 32,900  Level FlightAware ADS-B (CYQI)
10:37PM 44.2410 -65.3790 60° Northeast 638 734 32,900  Level FlightAware
10:37PM 44.2862 -65.2681 60° Northeast 639 735 32,900  Level FlightAware ADS-B (CYQI)
10:38PM 44.3360 -65.1463 60° Northeast 640 736 32,900  Level FlightAware ADS-B (CYQI)
10:38PM 44.4006 -64.9866 60° Northeast 642 739 32,900  Level FlightAware ADS-B (CYQI)
10:39PM 44.4590 -64.8415 61° Northeast 643 740 32,900  Level FlightAware ADS-B (CYQI)
10:40PM 44.5167 -64.6978 61° Northeast 641 738 32,900  Level FlightAware ADS-B (CYQI)
10:41PM 44.5779 -64.5440 61° Northeast 641 738 32,900  Level FlightAware ADS-B (CYQI)
10:42PM 44.6606 -64.3352 61° Northeast 641 738 32,900  Level FlightAware ADS-B (CYQI)
10:42PM 44.7430 -64.1270 61° Northeast 640 736 32,900  Level FlightAware
10:43PM 44.7970 -63.9880 61° Northeast 639 735 32,900  Level FlightAware
10:44PM 44.8740 -63.7890 61° Northeast 639 735 32,900  Level FlightAware
10:45PM 44.9290 -63.6470 61° Northeast 640 736 32,900  Level FlightAware
10:46PM 45.0120 -63.4300 62° Northeast 640 736 32,900  Level FlightAware
10:47PM 45.0900 -63.2240 62° Northeast 640 736 32,900  Level FlightAware
10:47PM 45.1660 -63.0220 62° Northeast 637 733 32,900  Level FlightAware
10:48PM 45.2090 -62.9070 62° Northeast 635 731 32,900  Level FlightAware
10:49PM 45.2570 -62.7800 62° Northeast 634 730 32,900  Level FlightAware
10:50PM 45.3380 -62.5600 62° Northeast 629 724 32,900  Level FlightAware
10:50PM 45.3730 -62.4670 62° Northeast 629 724 32,900  Level FlightAware
10:51PM 45.4540 -62.2460 62° Northeast 630 725 32,900  Level FlightAware
10:52PM 45.4970 -62.1260 63° Northeast 630 725 32,900  Level FlightAware
10:52PM 45.5410 -62.0060 62° Northeast 630 725 32,900  Level FlightAware
10:53PM 45.6130 -61.8070 63° Northeast 631 726 32,900  Level FlightAware
10:53PM 45.6490 -61.7070 63° Northeast 632 727 32,900  Level FlightAware
10:54PM 45.7240 -61.4970 63° Northeast 631 726 32,900  Level FlightAware
10:55PM 45.7650 -61.3780 64° Northeast 632 727 32,900  Level FlightAware
10:56PM 45.8350 -61.1830 63° Northeast 633 728 32,900  Level FlightAware
10:57PM 45.8950 -61.0110 63° Northeast 633 728 32,900  Level FlightAware
10:57PM 45.9700 -60.7940 63° Northeast 632 727 32,900  Level FlightAware
10:59PM 46.0520 -60.5560 64° Northeast 631 726 32,900  Level FlightAware
10:59PM 46.1270 -60.3370 64° Northeast 631 726 32,900  Level FlightAware
11:00PM 46.1690 -60.2130 64° Northeast 631 726 32,900  Level FlightAware
11:01PM 46.2590 -59.9450 64° Northeast 632 727 32,900  Level FlightAware
11:02PM 46.3100 -59.7920 64° Northeast 632 727 32,900  Level FlightAware
11:03PM 46.3800 -59.5810 64° Northeast 633 728 32,900  Level FlightAware
11:04PM 46.4460 -59.3790 65° Northeast 633 728 32,900  Level FlightAware
11:04PM 46.5040 -59.2000 65° Northeast 633 728 32,900 60 Level FlightAware
11:05PM 46.5700 -58.9960 65° Northeast 632 727 33,000  Climbing FlightAware
11:06PM 46.6030 -58.8940 65° Northeast 631 726 32,900 -120 Descending FlightAware
11:07PM 46.6770 -58.6640 65° Northeast 631 726 32,900  Level FlightAware
11:08PM 46.7310 -58.4940 65° Northeast 629 724 32,900  Level FlightAware
11:08PM 46.7870 -58.3170 65° Northeast 628 723 32,900  Level FlightAware
11:09PM 46.8240 -58.1990 65° Northeast 628 723 32,900  Level FlightAware
11:10PM 46.8620 -58.0810 65° Northeast 628 723 32,900  Level FlightAware
11:10PM 46.9000 -57.9630 65° Northeast 628 723 32,900  Level FlightAware
11:11PM 46.9860 -57.6720 66° East 632 727 32,900  Level FlightAware
11:12PM 47.0210 -57.5570 66° East 633 728 32,900  Level FlightAware
11:12PM 47.0550 -57.4450 66° East 634 730 32,900  Level FlightAware
11:13PM 47.0960 -57.3110 66° East 635 731 32,900  Level FlightAware
11:13PM 47.1520 -57.1230 66° East 638 734 32,900  Level FlightAware
11:14PM 47.2150 -56.9140 66° East 640 736 32,900  Level FlightAware
11:15PM 47.2570 -56.7720 66° East 639 735 32,900  Level FlightAware
11:15PM 47.2810 -56.6880 67° East 641 738 32,900 60 Level FlightAware
11:16PM 47.3510 -56.4480 67° East 641 738 33,000  Climbing FlightAware
11:17PM 47.4130 -56.2370 66° East 639 735 33,000 -60 Level FlightAware
11:18PM 47.4760 -56.0160 67° East 641 738 32,900  Descending FlightAware
11:19PM 47.5170 -55.8720 67° East 640 736 33,000  Climbing FlightAware
11:19PM 47.5500 -55.7560 67° East 639 735 32,900 -120 Descending FlightAware
11:20PM 47.5970 -55.5910 67° East 639 735 32,900  Level FlightAware
11:21PM 47.6550 -55.3820 68° East 637 733 32,900 60 Level FlightAware
11:21PM 47.6910 -55.2520 68° East 636 732 33,000 480 Climbing FlightAware
11:22PM 47.7330 -55.1010 67° East 635 731 33,500 780 Climbing FlightAware
11:22PM 47.7660 -54.9800 68° East 636 732 33,900 300 Climbing FlightAware
11:23PM 47.8080 -54.8260 68° East 643 740 33,900  Level FlightAware
11:23PM 47.8440 -54.6930 68° East 640 736 33,900 60 Level FlightAware
11:24PM 47.8740 -54.5830 68° East 639 735 34,000  Climbing FlightAware
11:25PM 47.9150 -54.4310 68° East 638 734 33,900 -120 Descending FlightAware
11:25PM 47.9770 -54.1990 68° East 635 731 33,900  Level FlightAware
11:26PM 48.0070 -54.0860 68° East 636 732 33,900  Level FlightAware
11:26PM 48.0400 -53.9610 68° East 636 732 33,900  Level FlightAware
11:27PM 48.0700 -53.8440 69° East 636 732 33,900  Level FlightAware
11:28PM 48.1300 -53.6150 68° East 636 732 33,900  Level FlightAware
11:29PM 48.1850 -53.3990 69° East 636 732 33,900  Level FlightAware
11:30PM 48.2380 -53.1920 69° East 637 733 33,900 60 Level FlightAware
11:30PM 48.2700 -53.0670 69° East 636 732 34,000  Climbing FlightAware
11:31PM 48.3330 -52.8160 69° East 633 728 33,900 -60 Descending FlightAware
11:32PM 48.3860 -52.6030 69° East 630 725 33,900 60 Level FlightAware
11:33PM 48.4280 -52.4330 70° East 631 726 34,000  Climbing FlightAware
11:33PM 48.4640 -52.2830 70° East 632 727 33,900 -120 Descending FlightAware
11:34PM 48.5210 -52.0490 70° East 632 727 33,900  Level FlightAware
11:35PM 48.5470 -51.9420 70° East 632 727 33,900  Level FlightAware
11:36PM 48.6020 -51.7100 70° East 633 728 33,900  Level FlightAware
11:36PM 48.6300 -51.5940 70° East 633 728 33,900  Level FlightAware
11:37PM 48.6640 -51.4470 71° East 634 730 33,900  Level FlightAware
11:37PM 48.7040 -51.2770 70° East 634 730 33,900  Level FlightAware
11:38PM 48.7340 -51.1460 71° East 632 727 33,900  Level FlightAware
11:39PM 48.7940 -50.8880 70° East 630 725 33,900  Level FlightAware
11:40PM 48.8460 -50.6680 70° East 630 725 33,900  Level FlightAware
11:40PM 48.8670 -50.5830 69° East 630 725 33,900  Level FlightAware
11:41PM 48.8970 -50.4560 70° East 630 725 33,900  Level FlightAware
11:41PM 48.9280 -50.3280 70° East 630 725 33,900  Level FlightAware
11:42PM 48.9570 -50.2080 70° East 630 725 33,900 60 Level FlightAware
11:43PM 49.0000 -50.0000 69° East 590 679 34,000  Climbing ETMS Enhanced Traffic Management System
11:43PM 48.9870 -50.0800 70° East 630 725 33,900 -240 Descending FlightAware
11:43PM 49.0070 -49.9950 70° East 630 725 33,900  Level FlightAware
11:43PM 49.0333 -49.6833 69° East 620 713 33,900  Level Gander Center
11:44PM 49.0580 -49.7820 70° East 630 725 33,900  Level FlightAware
11:45PM 49.1100 -49.5650 70° East 630 725 33,900  Level FlightAware
11:46PM 49.1510 -49.3910 70° East 630 725 33,900  Level FlightAware
11:47PM 49.1920 -49.2200 70° East 630 725 33,900  Level FlightAware
11:48PM 49.2330 -49.0450 70° East 630 725 33,900  Level FlightAware
11:48PM 49.2750 -48.8700 69° East 630 725 33,900  Level FlightAware
11:49PM 49.4000 -48.1833 69° East 620 713 33,900  Level Gander Center
11:50PM 49.4667 -47.9333 68° East 620 713 33,900  Level Gander Center
11:51PM 49.5333 -47.6833 68° East 620 713 33,900  Level Gander Center
11:54PM 49.5957 -47.4111 70° East  Level FlightAware Approximate
12:01AM 49.9331 -45.8740 71° East  Level FlightAware Approximate
12:02AM 49.9796 -45.6527 72° East  Level FlightAware Approximate
12:03AM 50.0257 -45.4310 72° East  Level FlightAware Approximate
12:04AM 50.0714 -45.2088 72° East  Level FlightAware Approximate
12:05AM 50.1166 -44.9862 72° East  Level FlightAware Approximate
12:06AM 50.1614 -44.7632 73° East  Level FlightAware Approximate
12:07AM 50.2058 -44.5398 73° East  Level FlightAware Approximate
12:08AM 50.2498 -44.3159 73° East  Level FlightAware Approximate
12:09AM 50.2934 -44.0917 73° East  Level FlightAware Approximate
12:10AM 50.3365 -43.8670 73° East  Level FlightAware Approximate
12:11AM 50.3791 -43.6419 73° East  Level FlightAware Approximate
12:12AM 50.4214 -43.4165 74° East  Level FlightAware Approximate
12:13AM 50.4632 -43.1906 74° East  Level FlightAware Approximate
12:14AM 50.5046 -42.9643 74° East  Level FlightAware Approximate
12:15AM 50.5455 -42.7377 74° East  Level FlightAware Approximate
12:16AM 50.5860 -42.5106 74° East  Level FlightAware Approximate
12:17AM 50.6260 -42.2832 74° East  Level FlightAware Approximate
12:18AM 50.6656 -42.0554 75° East  Level FlightAware Approximate
12:19AM 50.7048 -41.8271 75° East  Level FlightAware Approximate
12:20AM 50.7435 -41.5986 75° East  Level FlightAware Approximate
12:21AM 50.7817 -41.3696 75° East  Level FlightAware Approximate
12:22AM 50.8195 -41.1403 75° East  Level FlightAware Approximate
12:23AM 50.8569 -40.9105 75° East  Level FlightAware Approximate
12:24AM 50.8938 -40.6805 76° East  Level FlightAware Approximate
12:24AM 51.0000 -40.0000 77° East 553 636 34,000  Level ETMS Enhanced Traffic Management System
12:25AM 50.9293 -40.4563 76° East  Level FlightAware Approximate
12:26AM 50.9643 -40.2318 76° East  Level FlightAware Approximate
12:27AM 50.9989 -40.0069 76° East  Level FlightAware Approximate
12:28AM 51.0316 -39.7812 77° East  Level FlightAware Approximate
12:29AM 51.0638 -39.5551 77° East  Level FlightAware Approximate
12:30AM 51.2614 -38.0860 78° East 553 636 34,000  Level FlightAware Transoceanic
12:31AM 51.2918 -37.8452 79° East 553 636 34,000  Level FlightAware Transoceanic
12:32AM 51.3218 -37.6042 79° East 553 636 34,000  Level FlightAware Transoceanic
12:33AM 51.3513 -37.3628 79° East 553 636 34,000  Level FlightAware Transoceanic
12:34AM 51.3803 -37.1211 79° East 553 636 34,000  Level FlightAware Transoceanic
12:35AM 51.4087 -36.8791 79° East 553 636 34,000  Level FlightAware Transoceanic
12:36AM 51.4367 -36.6368 80° East 553 636 34,000  Level FlightAware Transoceanic
12:37AM 51.4642 -36.3942 80° East 553 636 34,000  Level FlightAware Transoceanic
12:38AM 51.4912 -36.1514 80° East 553 636 34,000  Level FlightAware Transoceanic
12:39AM 51.5177 -35.9082 80° East 553 636 34,000  Level FlightAware Transoceanic
12:40AM 51.5436 -35.6648 80° East 553 636 34,000  Level FlightAware Transoceanic
12:41AM 51.5691 -35.4211 81° East 553 636 34,000  Level FlightAware Transoceanic
12:42AM 51.5941 -35.1771 81° East 553 636 34,000  Level FlightAware Transoceanic
12:43AM 51.6185 -34.9328 81° East 553 636 34,000  Level FlightAware Transoceanic
12:44AM 51.6425 -34.6883 81° East 553 636 34,000  Level FlightAware Transoceanic
12:45AM 51.6659 -34.4436 81° East 553 636 34,000  Level FlightAware Transoceanic
12:46AM 51.6889 -34.1986 82° East 553 636 34,000  Level FlightAware Transoceanic
12:47AM 51.7113 -33.9533 82° East 553 636 34,000  Level FlightAware Transoceanic
12:48AM 51.7332 -33.7078 82° East 553 636 34,000  Level FlightAware Transoceanic
12:49AM 51.7546 -33.4621 82° East 553 636 34,000  Level FlightAware Transoceanic
12:50AM 51.7755 -33.2161 82° East 553 636 34,000  Level FlightAware Transoceanic
12:51AM 51.7959 -32.9699 82° East 553 636 34,000  Level FlightAware Transoceanic
12:52AM 51.8157 -32.7235 83° East 553 636 34,000  Level FlightAware Transoceanic
12:53AM 51.8351 -32.4769 83° East 553 636 34,000  Level FlightAware Transoceanic
12:54AM 51.8539 -32.2300 83° East 553 636 34,000  Level FlightAware Transoceanic
12:55AM 51.8722 -31.9830 83° East 553 636 34,000  Level FlightAware Transoceanic
12:56AM 51.8900 -31.7358 83° East 553 636 34,000  Level FlightAware Transoceanic
12:57AM 51.9073 -31.4883 84° East 553 636 34,000  Level FlightAware Transoceanic
12:58AM 51.9240 -31.2407 84° East 553 636 34,000  Level FlightAware Transoceanic
12:59AM 51.9403 -30.9929 84° East 553 636 34,000  Level FlightAware Transoceanic
01:00AM 51.9560 -30.7449 84° East 553 636 34,000  Level FlightAware Transoceanic
01:01AM 51.9712 -30.4968 84° East 553 636 34,000  Level FlightAware Transoceanic
01:02AM 51.9859 -30.2485 85° East 553 636 34,000  Level FlightAware Transoceanic
01:03AM 51.9993 -30.0128 85° East  Level FlightAware Approximate
01:04AM 52.0123 -29.7770 85° East  Level FlightAware Approximate
01:05AM 52.0297 -29.7945 77° East  Level FlightAware Approximate
01:06AM 52.0625 -29.5637 77° East  Level FlightAware Approximate
01:07AM 52.0949 -29.3325 77° East  Level FlightAware Approximate
01:07AM 52.0000 -30.0000 77° East 504 580 34,000  Level ETMS Enhanced Traffic Management System
01:08AM 52.1268 -29.1009 77° East  Level FlightAware Approximate
01:09AM 52.1583 -28.8691 77° East  Level FlightAware Approximate
01:10AM 52.1893 -28.6369 78° East  Level FlightAware Approximate
01:11AM 52.2199 -28.4044 78° East  Level FlightAware Approximate
01:12AM 52.2500 -28.1715 78° East  Level FlightAware Approximate
01:13AM 52.2440 -28.2184 78° East 504 580 34,000  Level FlightAware Transoceanic
01:14AM 52.2726 -27.9944 78° East 504 580 34,000  Level FlightAware Transoceanic
01:15AM 52.3008 -27.7700 78° East 504 580 34,000  Level FlightAware Transoceanic
01:16AM 52.3285 -27.5454 79° East 504 580 34,000  Level FlightAware Transoceanic
01:17AM 52.3558 -27.3205 79° East 504 580 34,000  Level FlightAware Transoceanic
01:18AM 52.3827 -27.0954 79° East 504 580 34,000  Level FlightAware Transoceanic
01:19AM 52.4092 -26.8699 79° East 504 580 34,000  Level FlightAware Transoceanic
01:20AM 52.4352 -26.6442 79° East 504 580 34,000  Level FlightAware Transoceanic
01:21AM 52.4609 -26.4182 80° East 504 580 34,000  Level FlightAware Transoceanic
01:22AM 52.4860 -26.1920 80° East 504 580 34,000  Level FlightAware Transoceanic
01:23AM 52.5108 -25.9655 80° East 504 580 34,000  Level FlightAware Transoceanic
01:24AM 52.5351 -25.7387 80° East 504 580 34,000  Level FlightAware Transoceanic
01:25AM 52.5590 -25.5117 80° East 504 580 34,000  Level FlightAware Transoceanic
01:26AM 52.5824 -25.2845 80° East 504 580 34,000  Level FlightAware Transoceanic
01:27AM 52.6054 -25.0570 81° East 504 580 34,000  Level FlightAware Transoceanic
01:28AM 52.6280 -24.8293 81° East 504 580 34,000  Level FlightAware Transoceanic
01:29AM 52.6502 -24.6013 81° East 504 580 34,000  Level FlightAware Transoceanic
01:30AM 52.6718 -24.3732 81° East 504 580 34,000  Level FlightAware Transoceanic
01:31AM 52.6931 -24.1448 81° East 504 580 34,000  Level FlightAware Transoceanic
01:32AM 52.7139 -23.9161 82° East 504 580 34,000  Level FlightAware Transoceanic
01:33AM 52.7343 -23.6873 82° East 504 580 34,000  Level FlightAware Transoceanic
01:34AM 52.7542 -23.4582 82° East 504 580 34,000  Level FlightAware Transoceanic
01:35AM 52.7738 -23.2290 82° East 504 580 34,000  Level FlightAware Transoceanic
01:36AM 52.7928 -22.9995 82° East 504 580 34,000  Level FlightAware Transoceanic
01:37AM 52.8114 -22.7698 82° East 504 580 34,000  Level FlightAware Transoceanic
01:38AM 52.8296 -22.5400 83° East 504 580 34,000  Level FlightAware Transoceanic
01:39AM 52.8473 -22.3099 83° East 504 580 34,000  Level FlightAware Transoceanic
01:40AM 52.8646 -22.0797 83° East 504 580 34,000  Level FlightAware Transoceanic
01:41AM 52.8814 -21.8493 83° East 504 580 34,000  Level FlightAware Transoceanic
01:42AM 52.8978 -21.6187 83° East 504 580 34,000  Level FlightAware Transoceanic
01:43AM 52.9138 -21.3879 84° East 504 580 34,000  Level FlightAware Transoceanic
01:44AM 52.9293 -21.1570 84° East 504 580 34,000  Level FlightAware Transoceanic
01:45AM 52.9443 -20.9259 84° East 504 580 34,000  Level FlightAware Transoceanic
01:46AM 52.9589 -20.6947 84° East 504 580 34,000  Level FlightAware Transoceanic
01:47AM 52.9730 -20.4632 84° East 504 580 34,000  Level FlightAware Transoceanic
01:48AM 52.9868 -20.2317 84° East 504 580 34,000  Level FlightAware Transoceanic
01:49AM 53.0005 -19.9907 84° East  Level FlightAware Approximate
01:50AM 53.0000 -19.9812 90° East  Level FlightAware Approximate
01:51AM 52.9991 -19.7391 90° East  Level FlightAware Approximate
01:52AM 52.9978 -19.4970 90° East  Level FlightAware Approximate
01:53AM 52.9959 -19.2548 91° East  Level FlightAware Approximate
01:54AM 52.9936 -19.0131 91° East  Level FlightAware Approximate
01:55AM 52.9908 -18.7715 91° East  Level FlightAware Approximate
01:56AM 52.9875 -18.5299 91° East  Level FlightAware Approximate
01:57AM 52.9837 -18.2883 91° East  Level FlightAware Approximate
01:58AM 52.9795 -18.0468 92° East  Level FlightAware Approximate
01:59AM 52.9747 -17.8053 92° East  Level FlightAware Approximate
02:00AM 52.9695 -17.5639 92° East  Level FlightAware Approximate
02:01AM 52.9637 -17.3225 92° East  Level FlightAware Approximate
02:02AM 52.9575 -17.0812 92° East  Level FlightAware Approximate
02:03AM 52.9508 -16.8400 93° East  Level FlightAware Approximate
02:04AM 52.9436 -16.5989 93° East  Level FlightAware Approximate
02:05AM 52.9359 -16.3578 93° East  Level FlightAware Approximate
02:06AM 52.9277 -16.1168 93° East  Level FlightAware Approximate
02:07AM 52.9190 -15.8760 93° East  Level FlightAware Approximate
02:08AM 52.9099 -15.6352 94° East  Level FlightAware Approximate
02:09AM 52.9002 -15.3945 94° East  Level FlightAware Approximate
02:10AM 52.8901 -15.1539 94° East  Level FlightAware Approximate
02:11AM 52.8798 -14.9135 94° East  Level FlightAware Approximate
02:12AM 52.8696 -14.6730 94° East  Level FlightAware Approximate
02:13AM 52.8589 -14.4327 94° East  Level FlightAware Approximate
02:14AM 52.8477 -14.1925 94° East  Level FlightAware Approximate
02:15AM 52.8361 -13.9524 94° East  Level FlightAware Approximate
02:16AM 52.8240 -13.7124 95° East  Level FlightAware Approximate
02:17AM 52.8113 -13.4726 95° East  Level FlightAware Approximate
02:18AM 52.7982 -13.2330 95° East  Level FlightAware Approximate
02:19AM 52.7846 -12.9934 95° East  Level FlightAware Approximate
02:20AM 52.7706 -12.7541 95° East  Level FlightAware Approximate
02:21AM 52.7560 -12.5148 96° East  Level FlightAware Approximate
02:21AM 52.8860 -12.9670 96° East 497 572 36,000  Level FlightAware
02:21AM 52.8770 -12.8420 97° East 499 574 36,000  Level FlightAware
02:22AM 52.7410 -12.2758 96° East  Level FlightAware Approximate
02:22AM 52.8630 -12.6590 97° East 502 578 36,000  Level FlightAware
02:23AM 52.8540 -12.5580 98° East 504 580 36,000  Level FlightAware
02:23AM 52.8400 -12.3890 98° East 505 581 36,000  Level FlightAware
02:24AM 52.8290 -12.2520 98° East 507 583 36,000  Level FlightAware
02:24AM 52.8180 -12.1150 98° East 508 585 36,000  Level FlightAware
02:25AM 52.8030 -11.9390 98° East 511 588 36,000  Level FlightAware
02:26AM 52.7910 -11.8050 98° East 513 590 36,000  Level FlightAware
02:26AM 52.7790 -11.6690 98° East 513 590 36,000  Level FlightAware
02:27AM 52.7660 -11.5160 98° East 512 589 36,000  Level FlightAware
02:27AM 52.7550 -11.3980 99° East 512 589 36,000  Level FlightAware
02:28AM 52.7370 -11.2050 99° East 511 588 36,000  Level FlightAware
02:29AM 52.7280 -11.1090 99° East 510 587 36,000  Level FlightAware
02:30AM 52.7060 -10.8760 99° East 509 586 36,000  Level FlightAware
02:30AM 52.6920 -10.7240 99° East 509 586 36,000  Level FlightAware
02:31AM 52.6790 -10.5910 99° East 509 586 36,000  Level FlightAware
02:32AM 52.6620 -10.4180 99° East 508 585 36,000  Level FlightAware
02:32AM 52.6470 -10.2660 99° East 507 583 36,000  Level FlightAware
02:33AM 52.6310 -10.1130 100° East 508 585 36,000  Level FlightAware
02:34AM 52.6200 -10.0010 99° East 508 585 36,000  Level FlightAware
02:35AM 52.5980 -9.7890 100° East 509 586 36,000  Level FlightAware
02:36AM 52.5710 -9.5400 100° East 507 583 36,000  Level FlightAware
02:36AM 52.6349 -10.1496 280° West 509 586 36,000  Level FlightAware ADS-B
02:37AM 52.6349 -10.1496 107° East 509 586 36,000  Level FlightAware ADS-B
02:38AM 52.5210 -9.0830 107° East 509 586 36,000  Level FlightAware
02:38AM 52.5098 -8.9705 107° East 486 559 36,000  Level FlightAware UK
02:38AM 52.5040 -8.9320 107° East 510 587 36,000  Level FlightAware
02:38AM 52.4976 -8.8579 107° East 484 557 36,000  Level FlightAware UK
02:39AM 52.4910 -8.8160 107° East 511 588 36,000  Level FlightAware
02:39AM 52.4844 -8.7434 107° East 488 562 36,000  Level FlightAware UK
02:39AM 52.4807 -8.7249 100° East 513 590 36,000  Level FlightAware ADS-B
02:40AM 52.4732 -8.6582 100° East 513 590 36,000  Level FlightAware ADS-B
02:40AM 52.4598 -8.5437 101° East 514 592 36,000  Level FlightAware ADS-B
02:41AM 52.4453 -8.4185 101° East 514 592 36,000  Level FlightAware ADS-B
02:41AM 52.4296 -8.2862 101° East 513 590 36,000  Level FlightAware ADS-B
02:42AM 52.4155 -8.1682 101° East 515 593 36,000  Level FlightAware ADS-B
02:42AM 52.3980 -8.0234 101° East 516 594 36,000  Level FlightAware ADS-B
02:43AM 52.3884 -7.9437 101° East 516 594 36,000  Level FlightAware ADS-B
02:43AM 52.3683 -7.7798 101° East 517 595 36,000  Level FlightAware ADS-B
02:44AM 52.3508 -7.6387 101° East 518 596 36,000  Level FlightAware ADS-B
02:45AM 52.3365 -7.5247 102° East 519 597 36,000  Level FlightAware ADS-B
02:45AM 52.3231 -7.4179 102° East 519 597 36,000  Level FlightAware ADS-B
02:46AM 52.3065 -7.2880 102° East 520 598 36,000  Level FlightAware ADS-B
02:46AM 52.2914 -7.1703 102° East 520 598 36,000  Level FlightAware ADS-B
02:47AM 52.2787 -7.0724 102° East 519 597 36,000  Level FlightAware ADS-B
02:47AM 52.2509 -6.8602 102° East 519 597 36,000  Level FlightAware ADS-B
02:48AM 52.2399 -6.7772 102° East 519 597 36,000  Level FlightAware ADS-B
02:48AM 52.2205 -6.6302 102° East 518 596 36,000  Level FlightAware ADS-B
02:49AM 52.2048 -6.5142 102° East 518 596 36,000  Level FlightAware ADS-B
02:49AM 52.2006 -6.4826 102° East 518 596 36,000  Level FlightAware ADS-B
02:50AM 52.1831 -6.3553 103° East 518 596 36,000  Level FlightAware ADS-B
02:50AM 52.1656 -6.2048 101° East 520 598 36,000  Level FlightAware ADS-B
02:51AM 52.1532 -6.0896 100° East 520 598 36,000  Level FlightAware ADS-B
02:51AM 52.1400 -5.9686 100° East 521 600 36,000  Level FlightAware ADS-B
02:52AM 52.1272 -5.8524 100° East 522 601 36,000  Level FlightAware ADS-B
02:52AM 52.1153 -5.7499 101° East 523 602 36,000  Level FlightAware ADS-B
02:53AM 52.1004 -5.6218 101° East 524 603 36,000  Level FlightAware ADS-B
02:53AM 52.0852 -5.4953 101° East 527 606 36,000  Level FlightAware ADS-B (LRCV / CRA)
02:54AM 52.0852 -5.4953 101° East 528 608 36,000  Level FlightAware ADS-B (EGDX / DGX)
02:55AM 52.0422 -5.1424 101° East 488 562 36,000  Level FlightAware UK
02:55AM 52.0448 -5.1586 101° East 529 609 36,000  Level FlightAware ADS-B
02:55AM 52.0219 -4.9726 101° East 529 609 36,000  Level FlightAware ADS-B (EGBS)
02:56AM 52.0105 -4.8805 101° East 529 609 36,000  Level FlightAware ADS-B
02:56AM 52.0075 -4.8567 102° East 531 611 36,000  Level FlightAware ADS-B
02:57AM 51.9757 -4.6045 101° East 531 611 36,000  Level FlightAware ADS-B (EGBS)
02:57AM 51.9657 -4.5258 102° East 530 610 36,000  Level FlightAware ADS-B
02:58AM 51.9689 -4.5508 281° West 532 612 36,000  Level FlightAware ADS-B
02:58AM 51.9449 -4.3644 102° East 534 615 36,000  Level FlightAware ADS-B
02:59AM 51.9303 -4.2509 102° East 533 613 36,000  Level FlightAware ADS-B
03:00AM 51.8900 -3.9515 102° East 490 564 36,000  Level FlightAware UK
03:00AM 51.9303 -4.2509 102° East 534 615 36,000  Level FlightAware ADS-B
03:01AM 51.8634 -3.7476 102° East 533 613 36,000  Level FlightAware ADS-B
03:01AM 51.8440 -3.6045 102° East 532 612 36,000  Level FlightAware ADS-B
03:02AM 51.8489 -3.6398 283° West 533 613 36,000  Level FlightAware ADS-B (EGDX / DGX)
03:02AM 51.8272 -3.4812 102° East 533 613 36,000  Level FlightAware ADS-B
03:02AM 51.8142 -3.3874 103° East 533 613 36,000  Level FlightAware ADS-B
03:03AM 51.8019 -3.2995 103° East 533 613 36,000  Level FlightAware ADS-B
03:03AM 51.7970 -3.2632 102° East 533 613 36,000  Level FlightAware ADS-B (LRCV / CRA)
03:03AM 51.7852 -3.1799 103° East 533 613 36,000  Level FlightAware ADS-B
03:03AM 51.7788 -3.1344 103° East 533 613 36,000  Level FlightAware ADS-B (EGDM)
03:03AM 51.7753 -3.1088 103° East 531 611 36,000  Level FlightAware ADS-B (EGUO)
03:04AM 51.7706 -3.0761 103° East 531 611 36,000  Level FlightAware ADS-B
03:04AM 51.7685 -3.0612 103° East 532 612 36,000  Level FlightAware ADS-B
03:04AM 51.7639 -3.0287 103° East 533 613 36,000  Level FlightAware ADS-B (LRCV / CRA)
03:04AM 51.7622 -3.0166 103° East 531 611 36,000  Level FlightAware ADS-B
03:04AM 51.7589 -2.9941 103° East 531 611 36,000  Level FlightAware ADS-B
03:04AM 51.7534 -2.9548 103° East 531 611 36,000  Level FlightAware ADS-B
03:04AM 51.7515 -2.9422 104° East 533 613 36,000  Level FlightAware ADS-B
03:04AM 51.7479 -2.9165 103° East 531 611 36,000  Level FlightAware ADS-B
03:04AM 51.7412 -2.8704 103° East 533 613 36,000  Level FlightAware ADS-B (LRCV / CRA)
03:05AM 51.7359 -2.8322 103° East 534 615 36,000  Level FlightAware ADS-B (LRCV / CRA)
03:05AM 51.7349 -2.8259 104° East 534 615 36,000  Level FlightAware ADS-B
03:05AM 51.7304 -2.7947 103° East 532 612 36,000  Level FlightAware ADS-B (EGUO)
03:05AM 51.7287 -2.7830 103° East 532 612 36,000  Level FlightAware ADS-B
03:05AM 51.7194 -2.7187 103° East 532 612 36,000  Level FlightAware ADS-B (EGUO)
03:05AM 51.7178 -2.7074 103° East 534 615 36,000  Level FlightAware ADS-B
03:05AM 51.7173 -2.7036 102° East 532 612 36,000  Level FlightAware ADS-B
03:05AM 51.7148 -2.6873 104° East 533 613 36,000  Level FlightAware ADS-B
03:05AM 51.7088 -2.6455 103° East 533 613 36,000  Level FlightAware ADS-B (LRCV / CRA)
03:06AM 51.7003 -2.5869 103° East 533 613 36,000  Level FlightAware ADS-B
03:06AM 51.6893 -2.5122 103° East 533 613 36,000  Level FlightAware ADS-B (EGBS)
03:06AM 51.6828 -2.4681 103° East 533 613 36,000  Level FlightAware ADS-B
03:07AM 51.6711 -2.3888 103° East 533 613 36,000  Level FlightAware ADS-B (EGDM)
03:07AM 51.6643 -2.3425 103° East 533 613 36,000  Level FlightAware ADS-B
03:07AM 51.6543 -2.2765 104° East 533 613 36,000  Level FlightAware ADS-B
03:07AM 51.6471 -2.2271 103° East 533 613 36,000  Level FlightAware ADS-B
03:07AM 51.6411 -2.1883 104° East 533 613 36,000  Level FlightAware ADS-B
03:08AM 51.6274 -2.0967 104° East 533 613 36,000  Level FlightAware ADS-B
03:08AM 51.6226 -2.0642 103° East 531 611 36,000  Level FlightAware ADS-B (EGUO)
03:08AM 51.6165 -2.0239 104° East 531 611 36,000  Level FlightAware ADS-B (EGUO)
03:08AM 51.6098 -1.9798 104° East 533 613 36,000  Level FlightAware ADS-B
03:09AM 51.5991 -1.9097 104° East 533 613 36,000  Level FlightAware ADS-B (EGUO)
03:09AM 51.5920 -1.8636 104° East 533 613 36,000  Level FlightAware ADS-B
03:09AM 51.5792 -1.7790 104° East 534 615 36,000  Level FlightAware ADS-B (LRCV / CRA)
03:09AM 51.5743 -1.7477 104° East 534 615 36,000  Level FlightAware ADS-B
03:10AM 51.5614 -1.6651 104° East 533 613 36,000  Level FlightAware ADS-B
03:10AM 51.5560 -1.6301 104° East 533 613 36,000  Level FlightAware ADS-B
03:10AM 51.5519 -1.6035 104° East 534 615 36,000  Level FlightAware ADS-B (EGLC / LCY)
03:10AM 51.5371 -1.5082 104° East 534 615 36,000  Level FlightAware ADS-B
03:11AM 51.5245 -1.4279 104° East 534 615 36,000  Level FlightAware ADS-B (EGLC / LCY)
03:11AM 51.5185 -1.3894 104° East 534 615 36,000  Level FlightAware ADS-B
03:11AM 51.5074 -1.3180 104° East 536 617 36,000  Level FlightAware ADS-B (EPRZ / RZE)
03:11AM 51.5009 -1.2736 103° East 536 617 36,000  Level FlightAware ADS-B
03:12AM 51.4912 -1.1965 101° East 538 619 36,000  Level FlightAware ADS-B
03:12AM 51.4865 -1.1541 100° East 538 619 36,000  Level FlightAware ADS-B
03:12AM 51.4745 -1.0343 99° East 539 620 36,000  Level FlightAware ADS-B
03:12AM 51.4743 -1.0323 100° East 539 620 36,000  Level FlightAware ADS-B (EGDM)
03:13AM 51.4628 -0.9152 99° East 538 619 36,000  Level FlightAware ADS-B
03:13AM 51.4626 -0.9116 95° East 538 619 36,000  Level FlightAware ADS-B (EGDM)
03:13AM 51.4511 -0.7964 99° East 538 619 36,000  Level FlightAware ADS-B
03:13AM 51.4496 -0.7816 99° East 538 619 36,000  Level FlightAware ADS-B
03:14AM 51.4376 -0.6606 99° East 537 618 36,000  Level FlightAware ADS-B
03:15AM 51.4245 -0.5343 99° East 536 617 36,000  Level FlightAware ADS-B
03:15AM 51.4133 -0.4271 99° East 535 616 36,000  Level FlightAware ADS-B
03:16AM 51.3997 -0.2975 100° East 535 616 36,000  Level FlightAware ADS-B
03:16AM 51.4005 -0.3060 279° West 535 616 36,000  Level FlightAware ADS-B
03:16AM 51.3888 -0.1960 100° East 535 616 36,000  Level FlightAware ADS-B (EGLC / LCY)
03:17AM 51.3730 -0.0494 100° East 534 615 36,000  Level FlightAware ADS-B
03:17AM 51.3690 -0.0129 100° East 532 612 36,000  Level FlightAware ADS-B (EGMD / LYX)
03:17AM 51.3677 -0.0010 100° East 532 612 36,000  Level FlightAware ADS-B (EGMD / LYX)
03:17AM 51.3596 0.0725 100° East 533 613 36,000  Level FlightAware ADS-B
03:17AM 51.3549 0.1151 100° East 533 613 36,000  Level FlightAware ADS-B
03:17AM 51.3526 0.1375 100° East 532 612 36,000  Level FlightAware ADS-B (EGDM)
03:18AM 51.3464 0.1927 100° East 532 612 36,000  Level FlightAware ADS-B
03:18AM 51.3464 0.1927 North 531 611 36,000  Level FlightAware ADS-B (EGMD / LYX)
03:18AM 51.3402 0.2487 100° East 531 611 36,000  Level FlightAware ADS-B
03:18AM 51.3328 0.3152 100° East 531 611 36,000  Level FlightAware ADS-B
03:18AM 51.3323 0.3192 101° East 531 611 36,000  Level FlightAware ADS-B (EPRZ / RZE)
03:19AM 51.3194 0.4349 100° East 532 612 36,000  Level FlightAware ADS-B
03:19AM 51.3130 0.4917 100° East 532 612 36,000  Level FlightAware ADS-B (EGLC / LCY)
03:19AM 51.3056 0.5564 100° East 533 613 36,000  Level FlightAware ADS-B
03:19AM 51.2990 0.6152 100° East 533 613 36,000  Level FlightAware ADS-B (EGMD / LYX)
03:20AM 51.2893 0.7005 100° East 533 613 36,000  Level FlightAware ADS-B
03:20AM 51.2834 0.7510 101° East 533 613 36,000  Level FlightAware ADS-B (EGMD / LYX)
03:20AM 51.2747 0.8259 100° East 532 612 36,000  Level FlightAware ADS-B
03:21AM 51.2690 0.8760 100° East 533 613 36,000  Level FlightAware ADS-B (EGMD / LYX)
03:21AM 51.2608 0.9472 100° East 533 613 36,000  Level FlightAware ADS-B
03:21AM 51.2506 1.0334 101° East 534 615 36,000  Level FlightAware ADS-B (EGMD / LYX)
03:21AM 51.2466 1.0684 100° East 534 615 36,000  Level FlightAware ADS-B
03:22AM 51.2360 1.1572 101° East 534 615 36,000  Level FlightAware ADS-B (EGMD / LYX)
03:22AM 51.2253 1.2470 101° East 535 616 36,000  Level FlightAware ADS-B
03:23AM 51.1974 1.4578 101° East 492 566 36,000  Level FlightAware UK
03:23AM 51.2144 1.3378 101° East 536 617 36,000  Level FlightAware ADS-B
03:23AM 51.1777 1.5721 101° East 492 566 36,000  Level FlightAware UK
03:24AM 51.1804 1.5550 101° East 534 615 36,000  Level FlightAware ADS-B (EGMD / LYX)
03:24AM 51.1824 1.5429 285° West 537 618 36,000  Level FlightAware ADS-B
03:24AM 51.1614 1.6692 105° East 535 616 36,000 420 Level FlightAware ADS-B (EGMD / LYX)
03:25AM 51.1315 1.8481 105° East 496 571 36,400 360 Climbing FlightAware UK
03:25AM 51.1339 1.8403 105° East 537 618 36,300 480 Descending FlightAware ADS-B (EGMD / LYX)
03:26AM 51.1004 2.0786 103° East 535 616 37,000 420 Climbing FlightAware ADS-B
03:26AM 51.0761 2.2415 103° East 492 566 37,000  Level FlightAware UK
03:26AM 51.0790 2.2266 103° East 534 615 37,000  Level FlightAware ADS-B
03:27AM 51.0591 2.3589 103° East 534 615 37,000  Level FlightAware ADS-B
03:28AM 51.0422 2.4722 103° East 533 613 37,000  Level FlightAware ADS-B
03:28AM 51.0132 2.6545 103° East 496 571 37,000  Level FlightAware UK
03:28AM 51.0130 2.6640 103° East 531 611 37,000  Level FlightAware
03:29AM 50.9860 2.8380 104° East 530 610 37,000  Level FlightAware
03:30AM 50.9603 2.9951 104° East 492 566 37,000  Level FlightAware UK
03:30AM 50.9600 3.0010 104° East 529 609 37,000  Level FlightAware
03:30AM 50.9410 3.1230 104° East 530 610 37,000  Level FlightAware
03:31AM 50.9190 3.2650 104° East 530 610 37,000  Level FlightAware
03:32AM 50.8960 3.4080 104° East 530 610 37,000  Level FlightAware
03:32AM 50.8625 3.6065 104° East 492 566 37,000  Level FlightAware UK
03:32AM 50.8690 3.5780 104° East 531 611 37,000  Level FlightAware
03:33AM 50.8500 3.6950 104° East 532 612 37,000  Level FlightAware
03:34AM 50.8183 3.8785 104° East 494 568 37,000  Level FlightAware UK
03:34AM 50.8260 3.8390 104° East 533 613 37,000  Level FlightAware
03:34AM 50.8030 3.9770 105° East 533 613 37,000  Level FlightAware
03:35AM 50.7689 4.1725 105° East 498 573 37,000  Level FlightAware UK
03:35AM 50.7503 4.2858 104° East 496 571 37,000  Level FlightAware UK
03:35AM 50.7590 4.2410 104° East 531 611 37,000  Level FlightAware
03:36AM 50.7314 4.3995 104° East 496 571 37,000  Level FlightAware UK
03:36AM 50.7370 4.3710 104° East 531 611 37,000  Level FlightAware
03:36AM 50.7170 4.4900 105° East 530 610 37,000  Level FlightAware
03:37AM 50.6900 4.6520 105° East 530 610 37,000  Level FlightAware
03:38AM 50.6710 4.7620 105° East 530 610 37,000  Level FlightAware
03:39AM 50.6380 4.9470 106° East 529 609 37,000  Level FlightAware
03:39AM 50.6200 5.0440 106° East 527 606 37,000  Level FlightAware
03:40AM 50.5860 5.1920 110° East 527 606 37,000  Level FlightAware
03:40AM 50.5560 5.3240 110° East 526 605 37,000  Level FlightAware
03:41AM 50.5240 5.4630 110° East 525 604 37,000  Level FlightAware
03:42AM 50.4850 5.6410 109° East 526 605 37,000  Level FlightAware
03:42AM 50.4500 5.7890 110° East 526 605 37,000  Level FlightAware
03:43AM 50.4240 5.9000 110° East 527 606 37,000  Level FlightAware
03:44AM 50.3900 6.0400 111° Southeast 528 608 37,000  Level FlightAware
03:44AM 50.3610 6.1630 110° East 529 609 37,000  Level FlightAware
03:45AM 50.3070 6.3890 110° East 527 606 37,000  Level FlightAware
03:46AM 50.2820 6.4910 111° Southeast 528 608 37,000  Level FlightAware
03:46AM 50.2500 6.6230 111° Southeast 527 606 37,000  Level FlightAware
03:47AM 50.2180 6.7540 111° Southeast 527 606 37,000  Level FlightAware
03:48AM 50.1790 6.9130 111° Southeast 527 606 37,000  Level FlightAware
03:48AM 50.1420 7.0620 111° Southeast 526 605 37,000  Level FlightAware
03:49AM 50.1030 7.2180 111° Southeast 526 605 37,000  Level FlightAware
03:50AM 50.0720 7.3410 111° Southeast 527 606 37,000  Level FlightAware
03:50AM 50.0400 7.4590 113° Southeast 524 603 37,000  Level FlightAware
03:51AM 49.9970 7.5440 128° Southeast 509 586 37,000  Level FlightAware
03:52AM 49.9070 7.6440 144° Southeast 504 580 37,000  Level FlightAware
03:52AM 49.8540 7.7000 146° Southeast 503 579 37,000  Level FlightAware
03:53AM 49.7710 7.7890 145° Southeast 504 580 37,000  Level FlightAware
03:53AM 49.6920 7.8760 145° Southeast 505 581 37,000  Level FlightAware
03:54AM 49.6090 7.9690 144° Southeast 502 578 37,000  Level FlightAware
03:55AM 49.5270 8.0610 144° Southeast 504 580 37,000  Level FlightAware
03:55AM 49.4580 8.1370 144° Southeast 504 580 37,000  Level FlightAware
03:56AM 49.3470 8.2610 144° Southeast 503 579 37,000  Level FlightAware
03:57AM 49.2770 8.3380 144° Southeast 502 578 37,000  Level FlightAware
03:58AM 49.2240 8.3970 144° Southeast 502 578 37,000  Level FlightAware
03:58AM 49.1640 8.4630 144° Southeast 502 578 37,000  Level FlightAware
03:59AM 49.0940 8.5390 145° Southeast 500 575 37,000  Level FlightAware
03:59AM 49.0240 8.6160 144° Southeast 499 574 37,000  Level FlightAware
04:00AM 48.9520 8.6940 145° Southeast 496 571 37,000  Level FlightAware
04:01AM 48.8870 8.7650 144° Southeast 495 570 37,000  Level FlightAware
04:01AM 48.8290 8.8280 144° Southeast 495 570 37,000  Level FlightAware
04:02AM 48.7670 8.8940 145° Southeast 496 571 37,000  Level FlightAware
04:02AM 48.6900 8.9770 145° Southeast 497 572 37,000  Level FlightAware
04:03AM 48.6330 9.0380 145° Southeast 499 574 37,000  Level FlightAware
04:03AM 48.5590 9.1170 145° Southeast 499 574 37,000  Level FlightAware
04:04AM 48.4480 9.2350 145° Southeast 499 574 37,000  Level FlightAware
04:05AM 48.3880 9.2980 145° Southeast 497 572 37,000  Level FlightAware
04:06AM 48.3200 9.3700 145° Southeast 496 571 37,000  Level FlightAware
04:06AM 48.2420 9.4590 143° Southeast 499 574 37,000  Level FlightAware
04:07AM 48.1790 9.5400 139° Southeast 500 575 37,000  Level FlightAware
04:07AM 48.1220 9.6150 139° Southeast 499 574 37,000  Level FlightAware
04:08AM 48.0540 9.7040 139° Southeast 499 574 37,000  Level FlightAware
04:09AM 47.9890 9.7880 139° Southeast 498 573 37,000  Level FlightAware
04:10AM 47.8700 9.9380 140° Southeast 497 572 37,000  Level FlightAware
04:10AM 47.7970 10.0240 142° Southeast 492 566 37,000  Level FlightAware
04:11AM 47.7390 10.0890 143° Southeast 490 564 37,000  Level FlightAware
04:12AM 47.6810 10.1520 144° Southeast 490 564 37,000  Level FlightAware
04:12AM 47.6100 10.2310 143° Southeast 488 562 37,000  Level FlightAware
04:13AM 47.5570 10.2900 143° Southeast 487 560 37,000  Level FlightAware
04:13AM 47.4860 10.3670 144° Southeast 486 559 37,000  Level FlightAware
04:14AM 47.4150 10.4420 144° Southeast 481 554 37,000  Level FlightAware
04:14AM 47.3650 10.4860 149° Southeast 477 549 37,000  Level FlightAware
04:15AM 47.2840 10.5510 151° Southeast 477 549 37,000  Level FlightAware
04:16AM 47.2050 10.6230 148° Southeast 488 562 37,000  Level FlightAware
04:17AM 47.0870 10.7930 136° Southeast 494 568 37,000  Level FlightAware
04:18AM 46.9780 10.9560 134° Southeast 497 572 37,000  Level FlightAware
04:19AM 46.9040 11.0660 135° Southeast 498 573 37,000  Level FlightAware
04:20AM 46.8470 11.1520 134° Southeast 498 573 37,000  Level FlightAware
04:20AM 46.7730 11.2610 135° Southeast 498 573 37,000  Level FlightAware
04:21AM 46.7060 11.3600 135° Southeast 497 572 37,000  Level FlightAware
04:21AM 46.6580 11.4290 135° Southeast 497 572 37,000  Level FlightAware
04:22AM 46.5930 11.5240 135° Southeast 497 572 37,000  Level FlightAware
04:23AM 46.5380 11.6060 134° Southeast 499 574 37,000  Level FlightAware
04:23AM 46.4830 11.6850 135° Southeast 499 574 37,000  Level FlightAware
04:24AM 46.3720 11.8470 135° Southeast 497 572 37,000  Level FlightAware
04:25AM 46.3330 11.9020 136° Southeast 497 572 37,000  Level FlightAware
04:26AM 46.2560 12.0130 135° Southeast 496 571 37,000  Level FlightAware
04:26AM 46.1830 12.1180 135° Southeast 497 572 37,000  Level FlightAware
04:27AM 46.1110 12.2210 135° Southeast 497 572 37,000  Level FlightAware
04:28AM 46.0590 12.2960 135° Southeast 497 572 37,000  Level FlightAware
04:28AM 45.9980 12.3820 136° Southeast 497 572 37,000  Level FlightAware
04:29AM 45.9460 12.4550 136° Southeast 497 572 37,000  Level FlightAware
04:29AM 45.8830 12.5440 135° Southeast 499 574 37,000  Level FlightAware
04:31AM 45.7570 12.7200 136° Southeast 501 577 37,000  Level FlightAware
04:31AM 45.7010 12.7990 135° Southeast 502 578 37,000  Level FlightAware
04:32AM 45.6550 12.8620 136° Southeast 503 579 37,000  Level FlightAware
04:32AM 45.5890 12.9540 136° Southeast 505 581 37,000  Level FlightAware
04:33AM 45.4790 13.1060 136° Southeast 505 581 37,000  Level FlightAware
04:34AM 45.4170 13.1910 136° Southeast 504 580 37,000  Level FlightAware
04:35AM 45.3640 13.2640 136° Southeast 505 581 37,000  Level FlightAware
04:35AM 45.3030 13.3460 137° Southeast 504 580 37,000  Level FlightAware
04:36AM 45.2270 13.4510 136° Southeast 503 579 37,000  Level FlightAware
04:37AM 45.1580 13.5430 137° Southeast 500 575 37,000  Level FlightAware
04:37AM 45.0930 13.6310 136° Southeast 496 571 37,000  Level FlightAware
04:38AM 45.0460 13.6930 137° Southeast 495 570 37,000  Level FlightAware
04:38AM 44.9870 13.7710 137° Southeast 493 567 37,000  Level FlightAware
04:39AM 44.9270 13.8510 137° Southeast 492 566 37,000  Level FlightAware
04:39AM 44.8790 13.9130 138° Southeast 491 565 37,000  Level FlightAware
04:40AM 44.8210 13.9890 137° Southeast 491 565 37,000  Level FlightAware
04:40AM 44.7720 14.0530 137° Southeast 489 563 37,000  Level FlightAware
04:41AM 44.6920 14.1560 138° Southeast 484 557 37,000  Level FlightAware
04:42AM 44.6460 14.2150 138° Southeast 484 557 37,000  Level FlightAware
04:42AM 44.5780 14.3020 138° Southeast 482 555 37,000  Level FlightAware
04:43AM 44.5110 14.3870 138° Southeast 480 552 37,000  Level FlightAware
04:44AM 44.4390 14.4770 138° Southeast 480 552 37,000  Level FlightAware
04:45AM 44.3640 14.5710 138° Southeast 479 551 37,000  Level FlightAware
04:45AM 44.3060 14.6430 138° Southeast 481 554 37,000  Level FlightAware
04:46AM 44.2390 14.7260 138° Southeast 481 554 37,000  Level FlightAware
04:46AM 44.1770 14.8020 139° Southeast 483 556 37,000  Level FlightAware
04:47AM 44.1170 14.8910 133° Southeast 491 565 37,000  Level FlightAware
04:47AM 44.0890 14.9500 123° Southeast 491 565 37,000  Level FlightAware
04:48AM 44.0420 15.0470 124° Southeast 491 565 37,000  Level FlightAware
04:49AM 43.9890 15.1500 126° Southeast 490 564 37,000  Level FlightAware
04:49AM 43.9320 15.2600 126° Southeast 489 563 37,000  Level FlightAware
04:50AM 43.8880 15.3500 124° Southeast 490 564 37,000  Level FlightAware
04:51AM 43.8400 15.4450 125° Southeast 490 564 37,000  Level FlightAware
04:51AM 43.7900 15.5450 125° Southeast 490 564 37,000  Level FlightAware
04:52AM 43.7490 15.6250 125° Southeast 491 565 37,000  Level FlightAware
04:53AM 43.6920 15.7370 125° Southeast 491 565 37,000  Level FlightAware
04:53AM 43.6500 15.8200 125° Southeast 490 564 37,000  Level FlightAware
04:54AM 43.6030 15.9120 125° Southeast 490 564 37,000  Level FlightAware
04:55AM 43.5330 16.0500 125° Southeast 489 563 37,000  Level FlightAware
04:55AM 43.4860 16.1410 125° Southeast 489 563 37,000  Level FlightAware
04:56AM 43.4340 16.2420 125° Southeast 488 562 37,000  Level FlightAware
04:57AM 43.3830 16.3400 126° Southeast 489 563 37,000  Level FlightAware
04:57AM 43.3240 16.4550 125° Southeast 488 562 37,000  Level FlightAware
04:58AM 43.2760 16.5460 126° Southeast 486 559 37,000  Level FlightAware
04:59AM 43.2190 16.6560 125° Southeast 485 558 37,000  Level FlightAware
05:00AM 43.1500 16.7880 126° Southeast 484 557 37,000  Level FlightAware
05:00AM 43.0850 16.9120 126° Southeast 485 558 37,000  Level FlightAware
05:01AM 43.0320 17.0130 126° Southeast 484 557 37,000  Level FlightAware
05:02AM 42.9840 17.1030 126° Southeast 483 556 37,000  Level FlightAware
05:02AM 42.9330 17.2000 126° Southeast 482 555 37,000  Level FlightAware
05:03AM 42.8810 17.2970 126° Southeast 483 556 37,000  Level FlightAware
05:03AM 42.8370 17.3800 126° Southeast 483 556 37,000  Level FlightAware
05:04AM 42.7870 17.4740 126° Southeast 483 556 37,000  Level FlightAware
05:05AM 42.7260 17.5880 126° Southeast 483 556 37,000  Level FlightAware
05:06AM 42.6620 17.7060 126° Southeast 485 558 37,000  Level FlightAware
05:06AM 42.6090 17.8030 127° Southeast 485 558 37,000  Level FlightAware
05:07AM 42.5770 17.8630 126° Southeast 486 559 37,000  Level FlightAware
05:08AM 42.5100 17.9870 126° Southeast 487 560 37,000  Level FlightAware
05:08AM 42.4770 18.0470 127° Southeast 487 560 37,000  Level FlightAware
05:09AM 42.4110 18.1660 127° Southeast 489 563 37,000  Level FlightAware
05:09AM 42.3610 18.2580 126° Southeast 489 563 37,000  Level FlightAware
05:10AM 42.3130 18.3460 126° Southeast 490 564 37,000  Level FlightAware
05:11AM 42.2200 18.5130 127° Southeast 490 564 37,000  Level FlightAware
05:12AM 42.1700 18.6030 127° Southeast 490 564 37,000  Level FlightAware
05:12AM 42.1150 18.7020 127° Southeast 491 565 37,000  Level FlightAware
05:13AM 42.0550 18.8110 127° Southeast 492 566 37,000  Level FlightAware
05:14AM 42.0080 18.8930 128° Southeast 492 566 37,000  Level FlightAware
05:14AM 41.9640 18.9720 127° Southeast 493 567 37,000  Level FlightAware
05:15AM 41.9090 19.0700 127° Southeast 494 568 37,000  Level FlightAware
05:16AM 41.8580 19.1590 128° Southeast 496 571 37,000  Level FlightAware
05:16AM 41.7940 19.2670 128° Southeast 498 573 37,000  Level FlightAware
05:17AM 41.7260 19.3500 138° Southeast 499 574 37,000  Level FlightAware
05:18AM 41.6550 19.4310 140° Southeast 498 573 37,000  Level FlightAware
05:19AM 41.5370 19.5640 140° Southeast 497 572 37,000  Level FlightAware
05:19AM 41.4650 19.6460 140° Southeast 497 572 37,000  Level FlightAware
05:20AM 41.4090 19.7140 138° Southeast 496 571 37,000  Level FlightAware
05:20AM 41.3640 19.7750 134° Southeast 496 571 37,000  Level FlightAware
05:21AM 41.2930 19.8700 135° Southeast 495 570 37,000  Level FlightAware
05:22AM 41.1980 19.9990 134° Southeast 493 567 37,000  Level FlightAware
05:23AM 41.1260 20.0950 135° Southeast 493 567 37,000  Level FlightAware
05:24AM 41.0190 20.2370 135° Southeast 496 571 37,000  Level FlightAware
05:25AM 40.9550 20.3220 135° Southeast 497 572 37,000  Level FlightAware
05:25AM 40.8980 20.3970 135° Southeast 495 570 37,000  Level FlightAware
05:26AM 40.8440 20.4690 135° Southeast 494 568 37,000  Level FlightAware
05:27AM 40.7740 20.5600 135° Southeast 492 566 37,000  Level FlightAware
05:27AM 40.6960 20.6630 135° Southeast 490 564 37,000  Level FlightAware
05:28AM 40.6440 20.7320 135° Southeast 488 562 37,000  Level FlightAware
05:29AM 40.5830 20.8110 135° Southeast 487 560 37,000  Level FlightAware
05:29AM 40.5200 20.8920 136° Southeast 487 560 37,000  Level FlightAware
05:30AM 40.4380 20.9910 137° Southeast 487 560 37,000  Level FlightAware
05:31AM 40.3500 21.0920 139° Southeast 486 559 37,000  Level FlightAware
05:31AM 40.2890 21.1620 139° Southeast 486 559 37,000  Level FlightAware
05:32AM 40.2150 21.2460 139° Southeast 486 559 37,000  Level FlightAware
05:33AM 40.1390 21.3330 139° Southeast 487 560 37,000  Level FlightAware
05:34AM 40.0310 21.4560 139° Southeast 486 559 37,000  Level FlightAware
05:35AM 39.9640 21.5320 139° Southeast 486 559 37,000  Level FlightAware
05:35AM 39.8900 21.6160 139° Southeast 487 560 37,000  Level FlightAware
05:36AM 39.8200 21.6940 139° Southeast 487 560 37,000  Level FlightAware
05:37AM 39.7580 21.7630 139° Southeast 487 560 37,000  Level FlightAware
05:37AM 39.6820 21.8480 139° Southeast 487 560 37,000  Level FlightAware
05:38AM 39.6160 21.9230 139° Southeast 486 559 37,000  Level FlightAware
05:39AM 39.5330 22.0150 139° Southeast 486 559 37,000  Level FlightAware
05:39AM 39.4720 22.0830 139° Southeast 487 560 37,000  Level FlightAware
05:40AM 39.3890 22.1730 140° Southeast 485 558 37,000  Level FlightAware
05:41AM 39.3180 22.2520 139° Southeast 484 557 37,000  Level FlightAware
05:42AM 39.2500 22.3260 140° Southeast 484 557 37,000  Level FlightAware
05:42AM 39.1790 22.4050 139° Southeast 484 557 37,000  Level FlightAware
05:43AM 39.1110 22.4790 140° Southeast 483 556 37,000  Level FlightAware
05:44AM 39.0380 22.5580 140° Southeast 483 556 37,000  Level FlightAware
05:44AM 38.9770 22.6240 140° Southeast 483 556 37,000  Level FlightAware
05:45AM 38.9020 22.7050 140° Southeast 482 555 37,000  Level FlightAware
05:46AM 38.8260 22.7870 140° Southeast 483 556 37,000  Level FlightAware
05:47AM 38.7410 22.8780 140° Southeast 482 555 37,000  Level FlightAware
05:47AM 38.6640 22.9620 140° Southeast 483 556 37,000  Level FlightAware
05:48AM 38.6050 23.0250 140° Southeast 482 555 37,000  Level FlightAware
05:49AM 38.5280 23.1060 141° Southeast 483 556 37,000  Level FlightAware
05:49AM 38.4820 23.1560 140° Southeast 484 557 37,000  Level FlightAware
05:50AM 38.4250 23.2160 140° Southeast 485 558 37,000  Level FlightAware
05:50AM 38.3570 23.2880 140° Southeast 485 558 37,000  Level FlightAware
05:51AM 38.2920 23.3570 140° Southeast 487 560 37,000  Level FlightAware
05:52AM 38.2280 23.4260 140° Southeast 487 560 37,000  Level FlightAware
05:52AM 38.1680 23.5130 131° Southeast 490 564 37,000  Level FlightAware
05:53AM 38.1150 23.6190 122° Southeast 492 566 37,000  Level FlightAware
05:54AM 38.0580 23.7360 122° Southeast 491 565 37,000  Level FlightAware
05:55AM 37.9800 23.8950 122° Southeast 490 564 37,000  Level FlightAware
05:55AM 37.9370 23.9800 123° Southeast 489 563 37,000  Level FlightAware
05:56AM 37.8760 24.0970 123° Southeast 489 563 37,000  Level FlightAware
05:57AM 37.8350 24.1760 123° Southeast 488 562 37,000  Level FlightAware
05:58AM 37.7820 24.2790 123° Southeast 488 562 37,000  Level FlightAware
05:58AM 37.7360 24.3690 123° Southeast 488 562 37,000  Level FlightAware
05:59AM 37.6930 24.4510 124° Southeast 487 560 37,000  Level FlightAware
05:59AM 37.6470 24.5390 123° Southeast 488 562 37,000  Level FlightAware
06:00AM 37.6030 24.6250 123° Southeast 488 562 37,000  Level FlightAware
06:01AM 37.5450 24.7350 124° Southeast 485 558 37,000  Level FlightAware
06:01AM 37.4950 24.8300 124° Southeast 485 558 37,000  Level FlightAware
06:02AM 37.4540 24.9100 123° Southeast 485 558 37,000  Level FlightAware
06:03AM 37.3980 25.0170 123° Southeast 485 558 37,000  Level FlightAware
06:03AM 37.3490 25.1080 124° Southeast 484 557 37,000  Level FlightAware
06:04AM 37.3030 25.1950 124° Southeast 483 556 37,000  Level FlightAware
06:05AM 37.2230 25.3470 123° Southeast 482 555 37,000  Level FlightAware
06:06AM 37.1880 25.4110 124° Southeast 482 555 37,000  Level FlightAware
06:06AM 37.1370 25.5080 123° Southeast 481 554 37,000  Level FlightAware
06:07AM 37.0750 25.6250 124° Southeast 482 555 37,000  Level FlightAware
06:08AM 37.0260 25.7150 124° Southeast 482 555 37,000  Level FlightAware
06:09AM 36.9590 25.8400 124° Southeast 482 555 37,000  Level FlightAware
06:09AM 36.9220 25.9090 124° Southeast 482 555 37,000  Level FlightAware
06:10AM 36.8600 26.0230 124° Southeast 482 555 37,000  Level FlightAware
06:11AM 36.8070 26.1210 124° Southeast 483 556 37,000  Level FlightAware
06:11AM 36.7680 26.1940 124° Southeast 483 556 37,000  Level FlightAware
06:12AM 36.7170 26.2870 124° Southeast 483 556 37,000  Level FlightAware
06:12AM 36.6730 26.3680 124° Southeast 484 557 37,000  Level FlightAware
06:13AM 36.6120 26.4800 124° Southeast 485 558 37,000  Level FlightAware
06:14AM 36.5610 26.5730 124° Southeast 486 559 37,000  Level FlightAware
06:14AM 36.5180 26.6510 124° Southeast 487 560 37,000  Level FlightAware
06:16AM 36.4190 26.8310 124° Southeast 487 560 37,000  Level FlightAware
06:16AM 36.3800 26.9010 125° Southeast 488 562 37,000  Level FlightAware
06:17AM 36.2950 27.0690 122° Southeast 489 563 37,000  Level FlightAware
06:18AM 36.2530 27.1590 120° Southeast 490 564 37,000  Level FlightAware
06:19AM 36.1940 27.2800 121° Southeast 491 565 37,000  Level FlightAware
06:20AM 36.1530 27.3690 120° Southeast 490 564 37,000  Level FlightAware
06:20AM 36.1050 27.5170 112° Southeast 492 566 37,000  Level FlightAware
06:21AM 36.0760 27.6100 111° Southeast 493 567 37,000  Level FlightAware
06:22AM 36.0430 27.7140 111° Southeast 493 567 37,000  Level FlightAware
06:23AM 35.9860 27.8380 120° Southeast 493 567 37,000  Level FlightAware
06:23AM 35.9440 27.9180 123° Southeast 494 568 37,000  Level FlightAware
06:24AM 35.9000 28.0030 123° Southeast 496 571 37,000  Level FlightAware
06:25AM 35.8370 28.1280 122° Southeast 497 572 37,000  Level FlightAware
06:25AM 35.7940 28.2130 122° Southeast 498 573 37,000  Level FlightAware
06:26AM 35.7540 28.2920 122° Southeast 499 574 37,000  Level FlightAware
06:26AM 35.6990 28.4020 122° Southeast 500 575 37,000  Level FlightAware
06:27AM 35.6610 28.4760 122° Southeast 499 574 37,000  Level FlightAware
06:27AM 35.6220 28.5520 122° Southeast 499 574 37,000  Level FlightAware
06:28AM 35.5720 28.6480 123° Southeast 499 574 37,000  Level FlightAware
06:29AM 35.5300 28.7300 122° Southeast 500 575 37,000  Level FlightAware
06:29AM 35.4820 28.8210 123° Southeast 499 574 37,000  Level FlightAware
06:30AM 35.4340 28.9140 122° Southeast 500 575 37,000  Level FlightAware
06:31AM 35.3670 29.0420 123° Southeast 501 577 37,000  Level FlightAware
06:32AM 35.3170 29.1380 123° Southeast 502 578 37,000  Level FlightAware
06:32AM 35.2710 29.2250 123° Southeast 503 579 37,000  Level FlightAware
06:33AM 35.2310 29.3020 122° Southeast 505 581 37,000  Level FlightAware
06:33AM 35.1860 29.3860 123° Southeast 505 581 37,000  Level FlightAware
06:34AM 35.1410 29.4730 122° Southeast 505 581 37,000  Level FlightAware
06:34AM 35.1160 29.5230 121° Southeast 505 581 37,000  Level FlightAware
06:35AM 35.0660 29.6220 122° Southeast 505 581 37,000  Level FlightAware
06:36AM 35.0280 29.6960 122° Southeast 505 581 37,000  Level FlightAware
06:37AM 34.9290 29.8700 125° Southeast 506 582 37,000  Level FlightAware
06:37AM 34.8760 29.9670 124° Southeast 507 583 37,000  Level FlightAware
06:38AM 34.8360 30.0410 123° Southeast 508 585 37,000  Level FlightAware
06:39AM 34.7880 30.1310 123° Southeast 508 585 37,000  Level FlightAware
06:39AM 34.7430 30.2130 124° Southeast 509 586 37,000  Level FlightAware
06:40AM 34.6850 30.3200 123° Southeast 509 586 37,000  Level FlightAware
06:40AM 34.6340 30.4140 123° Southeast 509 586 37,000  Level FlightAware
06:41AM 34.5830 30.5070 124° Southeast 510 587 37,000  Level FlightAware
06:42AM 34.5340 30.5960 124° Southeast 511 588 37,000  Level FlightAware
06:43AM 34.4630 30.7250 124° Southeast 512 589 37,000  Level FlightAware
06:43AM 34.4030 30.8340 124° Southeast 519 597 37,000  Level FlightAware
06:44AM 34.3420 30.9440 124° Southeast 519 597 37,000  Level FlightAware
06:45AM 34.2970 31.0250 124° Southeast 521 600 37,000  Level FlightAware
06:46AM 34.2260 31.1520 124° Southeast 523 602 37,000  Level FlightAware
06:46AM 34.1570 31.2750 124° Southeast 524 603 37,000  Level FlightAware
06:47AM 34.0980 31.3800 124° Southeast 525 604 37,000  Level FlightAware
06:48AM 34.0410 31.4810 124° Southeast 521 600 37,000  Level FlightAware
06:49AM 33.9810 31.5890 124° Southeast 522 601 37,000  Level FlightAware
06:49AM 33.9320 31.6740 125° Southeast 521 600 37,000  Level FlightAware
06:50AM 33.8500 31.8190 124° Southeast 522 601 37,000  Level FlightAware
06:51AM 33.7800 31.9420 124° Southeast 523 602 37,000  Level FlightAware
06:52AM 33.7280 32.0340 124° Southeast 523 602 37,000  Level FlightAware
06:52AM 33.6650 32.1570 122° Southeast 531 611 37,000  Level FlightAware
06:53AM 33.6310 32.2810 108° East 539 620 37,000  Level FlightAware
06:54AM 33.5960 32.3900 111° Southeast 540 621 37,000  Level FlightAware
06:55AM 33.5500 32.5350 111° Southeast 542 624 37,000 -540 Level FlightAware
06:56AM 33.5000 32.6950 111° Southeast 535 616 36,100 -1,020 Descending FlightAware
06:56AM 33.4700 32.7880 111° Southeast 533 613 35,500 -1,320 Descending FlightAware
06:57AM 33.4520 32.8440 111° Southeast 531 611 34,900 -1,800 Descending FlightAware
06:58AM 33.3900 33.0050 115° Southeast 508 585 33,100 -1,980 Descending FlightAware
06:58AM 33.3340 33.0890 129° Southeast 494 568 31,600 -2,220 Descending FlightAware
06:59AM 33.2840 33.1520 134° Southeast 486 559 30,500 -2,100 Descending FlightAware
06:59AM 33.2180 33.2340 134° Southeast 474 545 29,100 -2,100 Descending FlightAware
07:00AM 33.1600 33.3070 133° Southeast 463 533 27,700 -2,160 Descending FlightAware
07:01AM 33.1090 33.3700 134° Southeast 452 520 26,500 -2,160 Descending FlightAware
07:01AM 33.0480 33.4460 134° Southeast 442 509 25,000 -2,100 Descending FlightAware
07:02AM 32.9910 33.5170 134° Southeast 429 494 23,600 -2,400 Descending FlightAware
07:03AM 32.9410 33.5790 134° Southeast 429 494 21,900 -2,640 Descending FlightAware
07:03AM 32.8790 33.6560 134° Southeast 422 486 20,000 -2,460 Descending FlightAware
07:04AM 32.8230 33.7250 134° Southeast 412 474 18,400 -2,340 Descending FlightAware
07:05AM 32.7760 33.7820 134° Southeast 403 464 17,100 -2,220 Descending FlightAware
07:05AM 32.7330 33.8350 134° Southeast 396 456 15,900 -2,160 Descending FlightAware
07:06AM 32.6730 33.9090 134° Southeast 385 443 14,200 -2,160 Descending FlightAware
07:07AM 32.6260 33.9670 134° Southeast 377 434 12,800 -2,100 Descending FlightAware
07:07AM 32.5780 34.0260 134° Southeast 369 425 11,500 -1,920 Descending FlightAware
07:08AM 32.5370 34.0750 135° Southeast 361 415 10,400 -1,560 Descending FlightAware
07:08AM 32.5150 34.1020 134° Southeast 351 404 10,100 -300 Descending FlightAware
07:09AM 32.4780 34.1500 132° Southeast 351 404 10,100 -180 Level FlightAware
07:09AM 32.4400 34.1920 137° Southeast 289 333 9,900 -720 Descending FlightAware
07:10AM 32.3930 34.2470 135° Southeast 297 342 9,100 -720 Descending FlightAware
07:11AM 32.3500 34.2960 136° Southeast 298 343 8,800 -600 Descending FlightAware
07:12AM 32.3130 34.3400 135° Southeast 295 339 8,300 -1,200 Descending FlightAware
07:12AM 32.2680 34.3920 136° Southeast 291 335 7,200 -1,440 Descending FlightAware
07:13AM 32.2340 34.4350 133° Southeast 286 329 6,400 -1,200 Descending FlightAware
07:13AM 32.2200 34.4600 123° Southeast 283 326 6,000 -1,140 Descending FlightAware
07:14AM 32.1970 34.5050 121° Southeast 283 326 5,400 -600 Descending FlightAware
07:15AM 32.1550 34.5850 122° Southeast 256 295 5,000 -300 Descending FlightAware
07:15AM 32.1390 34.6140 123° Southeast 254 292 5,000  Level FlightAware
07:16AM 32.1260 34.6380 123° Southeast 254 292 5,000  Level FlightAware
07:17AM 32.0900 34.7020 124° Southeast 231 266 5,000  Level FlightAware
07:17AM 32.0750 34.7280 124° Southeast 214 246 5,000 -180 Level FlightAware
07:18AM 32.0510 34.7600 132° Southeast 199 229 4,800 -360 Descending FlightAware
07:19AM 32.0270 34.7880 135° Southeast 197 227 4,600 -600 Descending FlightAware
07:19AM 31.9990 34.8190 137° Southeast 194 223 4,100 -720 Descending FlightAware
07:20AM 31.9710 34.8510 136° Southeast 194 223 3,600 -1,080 Descending FlightAware
07:21AM 31.9870 34.8960 67° East 177 204 2,500 -1,320 Descending FlightAware
07:21AM 32.0050 34.9300 58° Northeast 164 189 1,800 -1,020 Descending FlightAware
07:22AM 32.0330 34.9130 333° Northwest 156 180 1,000 -660 Descending FlightAware
07:23AM 32.0370 34.8960 286° West 156 180 1,000  Level FlightAware